createdAt,value
2023-01-10T00:00:02.891Z,8.90
2023-01-10T00:01:02.952Z,8.90
2023-01-10T00:02:03.161Z,9.60
2023-01-10T00:03:03.002Z,9.60
2023-01-10T00:04:02.751Z,9.60
2023-01-10T00:05:02.852Z,9.60
2023-01-10T00:06:02.984Z,9.60
2023-01-10T00:07:02.040Z,9.20
2023-01-10T00:08:02.282Z,9.20
2023-01-10T00:09:01.987Z,9.20
2023-01-10T00:10:02.117Z,9.20
2023-01-10T00:11:02.285Z,9.20
2023-01-10T00:12:02.619Z,10.00
2023-01-10T00:13:02.173Z,10.00
2023-01-10T00:14:02.355Z,10.00
2023-01-10T00:15:02.146Z,10.00
2023-01-10T00:16:02.719Z,10.00
2023-01-10T00:17:02.776Z,11.80
2023-01-10T00:18:02.580Z,11.80
2023-01-10T00:19:02.469Z,11.80
2023-01-10T00:20:02.939Z,11.80
2023-01-10T00:21:02.514Z,11.80
2023-01-10T00:22:02.621Z,10.40
2023-01-10T00:23:02.035Z,10.40
2023-01-10T00:24:02.224Z,10.40
2023-01-10T00:25:02.445Z,10.40
2023-01-10T00:26:02.255Z,10.40
2023-01-10T00:27:02.344Z,7.30
2023-01-10T00:28:02.449Z,7.30
2023-01-10T00:29:02.088Z,7.30
2023-01-10T00:30:02.475Z,7.30
2023-01-10T00:31:02.163Z,7.30
2023-01-10T00:32:01.557Z,9.70
2023-01-10T00:33:01.597Z,9.70
2023-01-10T00:34:01.993Z,9.70
2023-01-10T00:35:01.637Z,9.70
2023-01-10T00:36:01.838Z,9.70
2023-01-10T00:37:01.810Z,11.80
2023-01-10T00:38:01.977Z,11.80
2023-01-10T00:39:01.909Z,11.80
2023-01-10T00:40:01.574Z,11.80
2023-01-10T00:41:01.889Z,11.80
2023-01-10T00:42:02.210Z,13.10
2023-01-10T00:43:02.609Z,13.10
2023-01-10T00:44:02.806Z,13.10
2023-01-10T00:45:02.625Z,13.10
2023-01-10T00:46:02.689Z,13.10
2023-01-10T00:47:01.749Z,9.50
2023-01-10T00:48:01.935Z,9.50
2023-01-10T00:49:02.278Z,9.50
2023-01-10T00:50:01.771Z,9.50
2023-01-10T00:51:01.744Z,9.50
2023-01-10T00:52:02.175Z,10.20
2023-01-10T00:53:02.399Z,10.20
2023-01-10T00:54:02.340Z,10.20
2023-01-10T00:55:02.200Z,10.20
2023-01-10T00:56:02.719Z,10.20
2023-01-10T00:57:02.248Z,10.20
2023-01-10T00:58:02.670Z,10.20
2023-01-10T00:59:02.079Z,10.20
2023-01-10T01:00:02.442Z,10.20
2023-01-10T01:01:02.380Z,10.20
2023-01-10T01:02:02.511Z,15.80
2023-01-10T01:03:02.976Z,15.80
2023-01-10T01:04:02.933Z,15.80
2023-01-10T01:05:02.731Z,15.80
2023-01-10T01:06:02.438Z,15.80
2023-01-10T01:07:02.754Z,10.10
2023-01-10T01:08:02.959Z,10.10
2023-01-10T01:09:03.044Z,10.10
2023-01-10T01:10:02.725Z,10.10
2023-01-10T01:11:03.004Z,10.10
2023-01-10T01:12:02.532Z,12.00
2023-01-10T01:13:02.982Z,12.00
2023-01-10T01:14:02.683Z,12.00
2023-01-10T01:15:02.571Z,12.00
2023-01-10T01:16:02.820Z,12.00
2023-01-10T01:17:02.987Z,9.50
2023-01-10T01:18:02.990Z,9.50
2023-01-10T01:19:03.378Z,9.50
2023-01-10T01:20:03.153Z,9.50
2023-01-10T01:21:03.466Z,9.50
2023-01-10T01:22:03.401Z,13.50
2023-01-10T01:23:03.195Z,13.50
2023-01-10T01:24:03.253Z,13.50
2023-01-10T01:25:03.112Z,13.50
2023-01-10T01:26:03.118Z,13.50
2023-01-10T01:27:02.663Z,12.50
2023-01-10T01:28:02.638Z,12.50
2023-01-10T01:29:02.676Z,12.50
2023-01-10T01:30:02.511Z,12.50
2023-01-10T01:31:02.859Z,12.50
2023-01-10T01:32:03.331Z,17.40
2023-01-10T01:33:03.562Z,17.40
2023-01-10T01:34:03.120Z,17.40
2023-01-10T01:35:03.188Z,17.40
2023-01-10T01:36:03.069Z,17.40
2023-01-10T01:37:02.505Z,16.20
2023-01-10T01:38:02.700Z,16.20
2023-01-10T01:39:02.500Z,16.20
2023-01-10T01:40:02.881Z,16.20
2023-01-10T01:41:02.850Z,16.20
2023-01-10T01:42:03.114Z,15.40
2023-01-10T01:43:02.876Z,15.40
2023-01-10T01:44:02.856Z,15.40
2023-01-10T01:45:03.065Z,15.40
2023-01-10T01:46:03.242Z,15.40
2023-01-10T01:47:02.188Z,18.10
2023-01-10T01:48:02.717Z,18.10
2023-01-10T01:49:02.617Z,18.10
2023-01-10T01:50:02.381Z,18.10
2023-01-10T01:51:02.701Z,18.10
2023-01-10T01:52:02.662Z,13.70
2023-01-10T01:53:02.284Z,13.70
2023-01-10T01:54:02.288Z,13.70
2023-01-10T01:55:02.747Z,13.70
2023-01-10T01:56:02.217Z,13.70
2023-01-10T01:57:02.915Z,14.00
2023-01-10T01:58:02.823Z,14.00
2023-01-10T01:59:02.805Z,14.00
2023-01-10T02:00:02.689Z,14.00
2023-01-10T02:01:02.616Z,14.00
2023-01-10T02:02:01.761Z,12.20
2023-01-10T02:03:03.156Z,12.20
2023-01-10T02:04:01.738Z,12.20
2023-01-10T02:05:01.704Z,12.20
2023-01-10T02:06:01.969Z,12.20
2023-01-10T02:07:02.681Z,14.70
2023-01-10T02:08:02.502Z,14.70
2023-01-10T02:09:02.103Z,14.70
2023-01-10T02:10:02.245Z,14.70
2023-01-10T02:11:02.622Z,14.70
2023-01-10T02:12:02.988Z,12.30
2023-01-10T02:13:02.540Z,12.30
2023-01-10T02:14:02.544Z,12.30
2023-01-10T02:15:02.659Z,12.30
2023-01-10T02:16:02.905Z,12.30
2023-01-10T02:17:02.340Z,14.30
2023-01-10T02:18:01.978Z,14.30
2023-01-10T02:19:02.257Z,14.30
2023-01-10T02:20:02.277Z,14.30
2023-01-10T02:21:01.845Z,14.30
2023-01-10T02:22:02.117Z,13.00
2023-01-10T02:23:02.442Z,13.00
2023-01-10T02:24:02.293Z,13.00
2023-01-10T02:25:02.012Z,13.00
2023-01-10T02:26:01.870Z,13.00
2023-01-10T02:27:01.853Z,13.80
2023-01-10T02:28:01.709Z,13.80
2023-01-10T02:29:01.940Z,13.80
2023-01-10T02:30:01.968Z,13.80
2023-01-10T02:31:01.609Z,13.80
2023-01-10T02:32:01.802Z,15.20
2023-01-10T02:33:05.427Z,15.20
2023-01-10T02:34:02.323Z,15.20
2023-01-10T02:35:01.994Z,15.20
2023-01-10T02:36:01.915Z,15.20
2023-01-10T02:37:01.963Z,16.80
2023-01-10T02:38:02.113Z,16.80
2023-01-10T02:39:01.574Z,16.80
2023-01-10T02:40:01.945Z,16.80
2023-01-10T02:41:01.495Z,16.80
2023-01-10T02:42:02.630Z,16.80
2023-01-10T02:43:02.366Z,16.80
2023-01-10T02:44:02.710Z,16.80
2023-01-10T02:45:02.304Z,16.80
2023-01-10T02:46:02.105Z,16.80
2023-01-10T02:47:01.751Z,18.80
2023-01-10T02:48:02.073Z,18.80
2023-01-10T02:49:02.050Z,18.80
2023-01-10T02:50:02.008Z,18.80
2023-01-10T02:51:02.135Z,18.80
2023-01-10T02:52:02.620Z,14.80
2023-01-10T02:53:02.369Z,14.80
2023-01-10T02:54:02.159Z,14.80
2023-01-10T02:55:02.016Z,14.80
2023-01-10T02:56:02.524Z,14.80
2023-01-10T02:57:02.392Z,15.80
2023-01-10T02:58:02.815Z,15.80
2023-01-10T02:59:02.323Z,15.80
2023-01-10T03:00:02.297Z,15.80
2023-01-10T03:01:02.921Z,15.80
2023-01-10T03:02:03.053Z,18.30
2023-01-10T03:03:02.378Z,18.30
2023-01-10T03:04:02.905Z,18.30
2023-01-10T03:05:02.745Z,18.30
2023-01-10T03:06:02.619Z,18.30
2023-01-10T03:07:03.104Z,20.10
2023-01-10T03:08:03.427Z,20.10
2023-01-10T03:09:03.504Z,20.10
2023-01-10T03:10:03.492Z,20.10
2023-01-10T03:11:03.564Z,20.10
2023-01-10T03:12:03.116Z,15.30
2023-01-10T03:13:02.731Z,15.30
2023-01-10T03:14:03.080Z,15.30
2023-01-10T03:15:02.513Z,15.30
2023-01-10T03:16:03.010Z,15.30
2023-01-10T03:17:04.761Z,15.40
2023-01-10T03:18:02.930Z,15.40
2023-01-10T03:19:03.320Z,15.40
2023-01-10T03:20:03.157Z,15.40
2023-01-10T03:21:02.792Z,15.40
2023-01-10T03:22:02.674Z,14.10
2023-01-10T03:23:02.576Z,14.10
2023-01-10T03:24:02.850Z,14.10
2023-01-10T03:25:02.693Z,14.10
2023-01-10T03:26:02.326Z,14.10
2023-01-10T03:27:03.159Z,18.70
2023-01-10T03:28:02.762Z,18.70
2023-01-10T03:29:02.977Z,18.70
2023-01-10T03:30:02.747Z,18.70
2023-01-10T03:31:03.267Z,18.70
2023-01-10T03:32:02.865Z,13.70
2023-01-10T03:33:03.226Z,13.70
2023-01-10T03:34:02.877Z,13.70
2023-01-10T03:35:03.237Z,13.70
2023-01-10T03:36:03.355Z,13.70
2023-01-10T03:37:02.795Z,14.50
2023-01-10T03:38:02.982Z,14.50
2023-01-10T03:39:02.484Z,14.50
2023-01-10T03:40:02.955Z,14.50
2023-01-10T03:41:02.714Z,14.50
2023-01-10T03:42:02.901Z,18.50
2023-01-10T03:43:03.215Z,18.50
2023-01-10T03:44:03.089Z,18.50
2023-01-10T03:45:03.186Z,18.50
2023-01-10T03:46:03.402Z,18.50
2023-01-10T03:47:03.483Z,20.90
2023-01-10T03:48:02.957Z,20.90
2023-01-10T03:49:03.284Z,20.90
2023-01-10T03:50:02.956Z,20.90
2023-01-10T03:51:03.474Z,20.90
2023-01-10T03:52:02.523Z,16.60
2023-01-10T03:53:02.757Z,16.60
2023-01-10T03:54:02.545Z,16.60
2023-01-10T03:55:02.419Z,16.60
2023-01-10T03:56:02.363Z,16.60
2023-01-10T03:57:03.010Z,21.00
2023-01-10T03:58:02.645Z,21.00
2023-01-10T03:59:03.069Z,21.00
2023-01-10T04:00:02.939Z,21.00
2023-01-10T04:01:02.910Z,21.00
2023-01-10T04:02:02.533Z,17.40
2023-01-10T04:03:02.137Z,17.40
2023-01-10T04:04:02.480Z,17.40
2023-01-10T04:05:02.234Z,17.40
2023-01-10T04:06:02.207Z,17.40
2023-01-10T04:07:02.629Z,14.80
2023-01-10T04:08:02.790Z,14.80
2023-01-10T04:09:02.859Z,14.80
2023-01-10T04:10:02.598Z,14.80
2023-01-10T04:11:02.750Z,14.80
2023-01-10T04:12:03.046Z,20.40
2023-01-10T04:13:02.468Z,20.40
2023-01-10T04:14:02.885Z,20.40
2023-01-10T04:15:03.171Z,20.40
2023-01-10T04:16:02.830Z,20.40
2023-01-10T04:17:02.489Z,17.60
2023-01-10T04:18:02.373Z,17.60
2023-01-10T04:19:02.324Z,17.60
2023-01-10T04:20:02.232Z,17.60
2023-01-10T04:21:02.156Z,17.60
2023-01-10T04:22:02.413Z,16.80
2023-01-10T04:23:02.271Z,16.80
2023-01-10T04:24:02.283Z,16.80
2023-01-10T04:25:02.291Z,16.80
2023-01-10T04:26:02.549Z,16.80
2023-01-10T04:27:02.659Z,17.90
2023-01-10T04:28:02.627Z,17.90
2023-01-10T04:29:02.423Z,17.90
2023-01-10T04:30:02.359Z,17.90
2023-01-10T04:31:02.666Z,17.90
2023-01-10T04:32:02.350Z,16.30
2023-01-10T04:33:02.304Z,16.30
2023-01-10T04:34:01.821Z,16.30
2023-01-10T04:35:01.785Z,16.30
2023-01-10T04:36:02.177Z,16.30
2023-01-10T04:37:02.189Z,17.30
2023-01-10T04:38:02.556Z,17.30
2023-01-10T04:39:02.421Z,17.30
2023-01-10T04:40:02.224Z,17.30
2023-01-10T04:41:02.092Z,17.30
2023-01-10T04:42:02.583Z,15.00
2023-01-10T04:43:02.652Z,15.00
2023-01-10T04:44:02.531Z,15.00
2023-01-10T04:45:02.646Z,15.00
2023-01-10T04:46:02.535Z,15.00
2023-01-10T04:47:02.271Z,17.20
2023-01-10T04:48:02.347Z,17.20
2023-01-10T04:49:02.567Z,17.20
2023-01-10T04:50:02.022Z,17.20
2023-01-10T04:51:02.320Z,17.20
2023-01-10T04:52:02.253Z,20.10
2023-01-10T04:53:02.629Z,20.10
2023-01-10T04:54:02.274Z,20.10
2023-01-10T04:55:02.821Z,20.10
2023-01-10T04:56:02.182Z,20.10
2023-01-10T04:57:02.867Z,21.30
2023-01-10T04:58:02.758Z,21.30
2023-01-10T04:59:02.746Z,21.30
2023-01-10T05:00:02.488Z,21.30
2023-01-10T05:01:02.438Z,21.30
2023-01-10T05:02:03.332Z,16.80
2023-01-10T05:03:02.862Z,16.80
2023-01-10T05:04:02.969Z,16.80
2023-01-10T05:05:02.712Z,16.80
2023-01-10T05:06:03.051Z,16.80
2023-01-10T05:07:02.634Z,17.90
2023-01-10T05:08:02.833Z,17.90
2023-01-10T05:09:02.758Z,17.90
2023-01-10T05:10:02.522Z,17.90
2023-01-10T05:11:02.489Z,17.90
2023-01-10T05:12:02.963Z,13.70
2023-01-10T05:13:02.909Z,13.70
2023-01-10T05:14:02.742Z,13.70
2023-01-10T05:15:02.721Z,13.70
2023-01-10T05:16:02.926Z,13.70
2023-01-10T05:17:03.146Z,20.60
2023-01-10T05:18:03.015Z,20.60
2023-01-10T05:19:02.826Z,20.60
2023-01-10T05:20:03.400Z,20.60
2023-01-10T05:21:03.305Z,20.60
2023-01-10T05:22:03.732Z,19.60
2023-01-10T05:23:03.411Z,19.60
2023-01-10T05:24:03.351Z,19.60
2023-01-10T05:25:03.907Z,19.60
2023-01-10T05:26:03.436Z,19.60
2023-01-10T05:27:03.147Z,20.90
2023-01-10T05:28:02.998Z,20.90
2023-01-10T05:29:02.956Z,20.90
2023-01-10T05:30:03.332Z,20.90
2023-01-10T05:31:02.776Z,20.90
2023-01-10T05:32:03.130Z,19.60
2023-01-10T05:33:02.823Z,19.60
2023-01-10T05:34:02.509Z,19.60
2023-01-10T05:35:02.584Z,19.60
2023-01-10T05:36:02.759Z,19.60
2023-01-10T05:37:02.777Z,16.10
2023-01-10T05:38:02.707Z,16.10
2023-01-10T05:39:02.700Z,16.10
2023-01-10T05:40:02.730Z,16.10
2023-01-10T05:41:02.861Z,16.10
2023-01-10T05:42:02.998Z,19.20
2023-01-10T05:43:03.045Z,19.20
2023-01-10T05:44:03.297Z,19.20
2023-01-10T05:45:02.894Z,19.20
2023-01-10T05:46:03.193Z,19.20
2023-01-10T05:47:02.163Z,17.70
2023-01-10T05:48:02.349Z,17.70
2023-01-10T05:49:02.573Z,17.70
2023-01-10T05:50:02.304Z,17.70
2023-01-10T05:51:02.287Z,17.70
2023-01-10T05:52:03.364Z,17.10
2023-01-10T05:53:03.422Z,17.10
2023-01-10T05:54:02.892Z,17.10
2023-01-10T05:55:03.325Z,17.10
2023-01-10T05:56:03.111Z,17.10
2023-01-10T05:57:02.695Z,15.70
2023-01-10T05:58:02.371Z,15.70
2023-01-10T05:59:14.005Z,15.70
2023-01-10T06:00:04.944Z,15.70
2023-01-10T06:01:02.443Z,15.70
2023-01-10T06:02:03.105Z,16.50
2023-01-10T06:03:03.261Z,16.50
2023-01-10T06:04:02.654Z,16.50
2023-01-10T06:05:02.735Z,16.50
2023-01-10T06:06:03.077Z,16.50
2023-01-10T06:07:02.435Z,14.50
2023-01-10T06:08:02.207Z,14.50
2023-01-10T06:09:02.371Z,14.50
2023-01-10T06:10:02.379Z,14.50
2023-01-10T06:11:02.340Z,14.50
2023-01-10T06:12:02.565Z,15.70
2023-01-10T06:13:02.683Z,15.70
2023-01-10T06:14:02.612Z,15.70
2023-01-10T06:15:03.044Z,15.70
2023-01-10T06:16:02.607Z,15.70
2023-01-10T06:17:02.202Z,18.50
2023-01-10T06:18:02.496Z,18.50
2023-01-10T06:19:02.595Z,18.50
2023-01-10T06:20:02.577Z,18.50
2023-01-10T06:21:02.519Z,18.50
2023-01-10T06:22:02.659Z,16.40
2023-01-10T06:23:02.375Z,16.40
2023-01-10T06:24:02.700Z,16.40
2023-01-10T06:25:02.718Z,16.40
2023-01-10T06:26:02.894Z,16.40
2023-01-10T06:27:02.515Z,20.90
2023-01-10T06:28:02.088Z,20.90
2023-01-10T06:29:02.009Z,20.90
2023-01-10T06:30:02.065Z,20.90
2023-01-10T06:31:02.340Z,20.90
2023-01-10T06:32:02.197Z,13.70
2023-01-10T06:33:02.425Z,13.70
2023-01-10T06:34:02.252Z,13.70
2023-01-10T06:35:02.184Z,13.70
2023-01-10T06:36:02.333Z,13.70
2023-01-10T06:37:03.020Z,18.30
2023-01-10T06:38:02.452Z,18.30
2023-01-10T06:39:02.969Z,18.30
2023-01-10T06:40:02.477Z,18.30
2023-01-10T06:41:02.693Z,18.30
2023-01-10T06:42:02.251Z,16.60
2023-01-10T06:43:02.331Z,16.60
2023-01-10T06:44:02.026Z,16.60
2023-01-10T06:45:02.202Z,16.60
2023-01-10T06:46:02.130Z,16.60
2023-01-10T06:47:02.336Z,18.40
2023-01-10T06:48:01.813Z,18.40
2023-01-10T06:49:01.947Z,18.40
2023-01-10T06:50:02.356Z,18.40
2023-01-10T06:51:01.979Z,18.40
2023-01-10T06:52:02.069Z,18.50
2023-01-10T06:53:01.902Z,18.50
2023-01-10T06:54:02.075Z,18.50
2023-01-10T06:55:01.956Z,18.50
2023-01-10T06:56:02.555Z,18.50
2023-01-10T06:57:02.163Z,14.90
2023-01-10T06:58:01.995Z,14.90
2023-01-10T06:59:02.001Z,14.90
2023-01-10T07:00:02.265Z,14.90
2023-01-10T07:01:02.156Z,14.90
2023-01-10T07:02:02.422Z,18.50
2023-01-10T07:03:02.886Z,18.50
2023-01-10T07:04:02.473Z,18.50
2023-01-10T07:05:02.868Z,18.50
2023-01-10T07:06:02.332Z,20.70
2023-01-10T07:07:03.405Z,20.70
2023-01-10T07:08:02.989Z,20.70
2023-01-10T07:09:03.545Z,20.70
2023-01-10T07:10:03.079Z,20.70
2023-01-10T07:11:03.921Z,19.00
2023-01-10T07:12:02.498Z,19.00
2023-01-10T07:13:02.409Z,19.00
2023-01-10T07:14:02.372Z,19.00
2023-01-10T07:15:02.492Z,19.00
2023-01-10T07:16:02.743Z,17.30
2023-01-10T07:17:03.267Z,17.30
2023-01-10T07:18:03.228Z,17.30
2023-01-10T07:19:02.780Z,17.30
2023-01-10T07:20:03.102Z,17.30
2023-01-10T07:21:03.207Z,21.10
2023-01-10T07:22:02.905Z,21.10
2023-01-10T07:23:03.351Z,21.10
2023-01-10T07:24:03.234Z,21.10
2023-01-10T07:25:02.785Z,21.10
2023-01-10T07:26:02.892Z,18.90
2023-01-10T07:27:02.565Z,18.90
2023-01-10T07:28:02.413Z,18.90
2023-01-10T07:29:02.624Z,18.90
2023-01-10T07:30:02.391Z,18.90
2023-01-10T07:31:02.575Z,18.30
2023-01-10T07:32:03.395Z,18.30
2023-01-10T07:33:03.120Z,18.30
2023-01-10T07:34:03.329Z,18.30
2023-01-10T07:35:02.931Z,18.30
2023-01-10T07:36:03.412Z,18.80
2023-01-10T07:37:02.416Z,18.80
2023-01-10T07:38:02.703Z,18.80
2023-01-10T07:39:02.690Z,18.80
2023-01-10T07:40:02.435Z,18.80
2023-01-10T07:41:02.465Z,22.10
2023-01-10T07:42:02.831Z,22.10
2023-01-10T07:43:03.220Z,22.10
2023-01-10T07:44:03.195Z,22.10
2023-01-10T07:45:02.840Z,22.10
2023-01-10T07:46:03.093Z,22.40
2023-01-10T07:47:03.290Z,22.40
2023-01-10T07:48:02.792Z,22.40
2023-01-10T07:49:03.058Z,22.40
2023-01-10T07:50:02.778Z,22.40
2023-01-10T07:51:03.225Z,20.20
2023-01-10T07:52:02.625Z,20.20
2023-01-10T07:53:02.671Z,20.20
2023-01-10T07:54:02.484Z,20.20
2023-01-10T07:55:02.405Z,20.20
2023-01-10T07:56:02.291Z,19.90
2023-01-10T07:57:02.997Z,19.90
2023-01-10T07:58:02.597Z,19.90
2023-01-10T07:59:03.009Z,19.90
2023-01-10T08:00:02.677Z,19.90
2023-01-10T08:01:02.845Z,26.30
2023-01-10T08:02:02.271Z,26.30
2023-01-10T08:03:02.272Z,26.30
2023-01-10T08:04:02.151Z,26.30
2023-01-10T08:05:01.820Z,26.30
2023-01-10T08:06:02.024Z,18.40
2023-01-10T08:07:02.356Z,18.40
2023-01-10T08:08:02.263Z,18.40
2023-01-10T08:09:02.305Z,18.40
2023-01-10T08:10:02.698Z,18.40
2023-01-10T08:11:02.240Z,20.50
2023-01-10T08:12:02.151Z,20.50
2023-01-10T08:13:16.978Z,20.50
2023-01-10T08:14:01.903Z,20.50
2023-01-10T08:15:02.054Z,20.50
2023-01-10T08:16:01.814Z,22.60
2023-01-10T08:17:02.266Z,22.60
2023-01-10T08:18:04.161Z,22.60
2023-01-10T08:19:01.979Z,22.60
2023-01-10T08:20:01.783Z,22.60
2023-01-10T08:21:01.653Z,20.80
2023-01-10T08:22:01.787Z,20.80
2023-01-10T08:23:02.087Z,20.80
2023-01-10T08:24:02.063Z,20.80
2023-01-10T08:25:01.947Z,20.80
2023-01-10T08:26:01.993Z,27.00
2023-01-10T08:27:02.571Z,27.00
2023-01-10T08:28:01.897Z,27.00
2023-01-10T08:29:01.982Z,27.00
2023-01-10T08:30:02.179Z,27.00
2023-01-10T08:31:01.981Z,38.20
2023-01-10T08:32:02.082Z,38.20
2023-01-10T08:33:01.698Z,38.20
2023-01-10T08:34:01.699Z,38.20
2023-01-10T08:35:01.464Z,38.20
2023-01-10T08:36:02.005Z,43.20
2023-01-10T08:37:01.935Z,43.20
2023-01-10T08:38:02.392Z,43.20
2023-01-10T08:39:01.953Z,43.20
2023-01-10T08:40:02.281Z,43.20
2023-01-10T08:41:01.893Z,33.60
2023-01-10T08:42:01.487Z,33.60
2023-01-10T08:43:01.992Z,33.60
2023-01-10T08:44:01.927Z,33.60
2023-01-10T08:45:01.908Z,33.60
2023-01-10T08:46:02.082Z,28.30
2023-01-10T08:47:01.599Z,28.30
2023-01-10T08:48:01.881Z,28.30
2023-01-10T08:49:01.686Z,28.30
2023-01-10T08:50:02.021Z,28.30
2023-01-10T08:51:02.022Z,25.70
2023-01-10T08:52:02.369Z,25.70
2023-01-10T08:53:02.110Z,25.70
2023-01-10T08:54:01.828Z,25.70
2023-01-10T08:55:02.151Z,25.70
2023-01-10T08:56:03.205Z,26.80
2023-01-10T08:57:01.976Z,26.80
2023-01-10T08:58:02.231Z,26.80
2023-01-10T08:59:02.585Z,26.80
2023-01-10T09:00:02.477Z,26.80
2023-01-10T09:01:02.294Z,20.90
2023-01-10T09:02:03.098Z,20.90
2023-01-10T09:03:03.035Z,20.90
2023-01-10T09:04:02.936Z,20.90
2023-01-10T09:05:04.882Z,20.90
2023-01-10T09:06:03.400Z,29.00
2023-01-10T09:07:02.498Z,29.00
2023-01-10T09:08:02.556Z,29.00
2023-01-10T09:09:02.965Z,29.00
2023-01-10T09:10:03.006Z,29.00
2023-01-10T09:11:02.458Z,26.50
2023-01-10T09:12:02.926Z,26.50
2023-01-10T09:13:02.667Z,26.50
2023-01-10T09:14:03.097Z,26.50
2023-01-10T09:15:02.763Z,26.50
2023-01-10T09:16:03.180Z,29.30
2023-01-10T09:17:02.976Z,29.30
2023-01-10T09:18:02.635Z,29.30
2023-01-10T09:19:02.948Z,29.30
2023-01-10T09:20:02.917Z,29.30
2023-01-10T09:21:02.773Z,30.50
2023-01-10T09:22:02.738Z,30.50
2023-01-10T09:23:03.120Z,30.50
2023-01-10T09:24:02.763Z,30.50
2023-01-10T09:25:03.282Z,30.50
2023-01-10T09:26:03.070Z,20.80
2023-01-10T09:27:03.132Z,20.80
2023-01-10T09:28:03.668Z,20.80
2023-01-10T09:29:03.627Z,20.80
2023-01-10T09:30:03.703Z,20.80
2023-01-10T09:31:03.201Z,24.00
2023-01-10T09:32:02.359Z,24.00
2023-01-10T09:33:02.354Z,24.00
2023-01-10T09:34:02.910Z,24.00
2023-01-10T09:35:02.766Z,24.00
2023-01-10T09:36:02.692Z,25.80
2023-01-10T09:37:03.065Z,25.80
2023-01-10T09:38:02.790Z,25.80
2023-01-10T09:39:02.659Z,25.80
2023-01-10T09:40:02.840Z,25.80
2023-01-10T09:41:02.677Z,25.10
2023-01-10T09:42:02.171Z,25.10
2023-01-10T09:43:02.635Z,25.10
2023-01-10T09:44:02.752Z,25.10
2023-01-10T09:45:02.674Z,25.10
2023-01-10T09:46:02.181Z,28.20
2023-01-10T09:47:06.203Z,28.20
2023-01-10T09:48:02.448Z,28.20
2023-01-10T09:49:02.728Z,28.20
2023-01-10T09:50:02.362Z,28.20
2023-01-10T09:51:02.589Z,28.10
2023-01-10T09:52:03.148Z,28.10
2023-01-10T09:53:02.945Z,28.10
2023-01-10T09:54:11.287Z,28.10
2023-01-10T09:55:03.798Z,28.10
2023-01-10T09:56:03.158Z,20.90
2023-01-10T09:57:02.391Z,20.90
2023-01-10T09:58:02.199Z,20.90
2023-01-10T09:59:02.637Z,20.90
2023-01-10T10:00:02.662Z,20.90
2023-01-10T10:01:02.779Z,27.60
2023-01-10T10:02:02.427Z,27.60
2023-01-10T10:03:02.145Z,27.60
2023-01-10T10:04:02.239Z,27.60
2023-01-10T10:05:02.230Z,27.60
2023-01-10T10:06:11.700Z,22.50
2023-01-10T10:07:02.920Z,22.50
2023-01-10T10:08:02.619Z,22.50
2023-01-10T10:09:04.866Z,22.50
2023-01-10T10:10:02.937Z,22.50
2023-01-10T10:11:02.926Z,24.20
2023-01-10T10:12:02.402Z,24.20
2023-01-10T10:13:02.272Z,24.20
2023-01-10T10:14:02.203Z,24.20
2023-01-10T10:15:02.530Z,24.20
2023-01-10T10:16:02.301Z,23.60
2023-01-10T10:17:01.875Z,23.60
2023-01-10T10:18:02.143Z,23.60
2023-01-10T10:19:02.115Z,23.60
2023-01-10T10:20:01.704Z,23.60
2023-01-10T10:21:01.829Z,27.00
2023-01-10T10:22:02.640Z,27.00
2023-01-10T10:23:02.463Z,27.00
2023-01-10T10:24:02.136Z,27.00
2023-01-10T10:25:02.153Z,27.00
2023-01-10T10:26:02.653Z,22.40
2023-01-10T10:27:02.706Z,22.40
2023-01-10T10:28:02.330Z,22.40
2023-01-10T10:29:02.782Z,22.40
2023-01-10T10:30:02.548Z,22.40
2023-01-10T10:31:02.926Z,21.00
2023-01-10T10:32:02.726Z,21.00
2023-01-10T10:33:02.656Z,21.00
2023-01-10T10:34:02.453Z,21.00
2023-01-10T10:35:02.715Z,21.00
2023-01-10T10:36:02.652Z,22.00
2023-01-10T10:37:01.728Z,22.00
2023-01-10T10:38:01.441Z,22.00
2023-01-10T10:39:01.728Z,22.00
2023-01-10T10:40:01.796Z,22.00
2023-01-10T10:41:01.497Z,22.90
2023-01-10T10:42:02.430Z,22.90
2023-01-10T10:43:02.277Z,22.90
2023-01-10T10:44:02.440Z,22.90
2023-01-10T10:45:02.210Z,22.90
2023-01-10T10:46:02.502Z,20.40
2023-01-10T10:47:02.700Z,20.40
2023-01-10T10:48:02.891Z,20.40
2023-01-10T10:49:02.351Z,20.40
2023-01-10T10:50:02.264Z,20.40
2023-01-10T10:51:02.699Z,21.10
2023-01-10T10:52:02.258Z,21.10
2023-01-10T10:53:02.296Z,21.10
2023-01-10T10:54:01.756Z,21.10
2023-01-10T10:55:01.814Z,21.10
2023-01-10T10:56:02.313Z,22.70
2023-01-10T10:57:02.775Z,22.70
2023-01-10T10:58:02.403Z,22.70
2023-01-10T10:59:02.527Z,22.70
2023-01-10T11:00:02.282Z,22.70
2023-01-10T11:01:02.542Z,23.20
2023-01-10T11:02:03.366Z,23.20
2023-01-10T11:03:02.905Z,23.20
2023-01-10T11:04:03.415Z,23.20
2023-01-10T11:05:03.023Z,23.20
2023-01-10T11:06:03.279Z,21.40
2023-01-10T11:07:03.059Z,21.40
2023-01-10T11:08:03.127Z,21.40
2023-01-10T11:09:03.523Z,21.40
2023-01-10T11:10:03.534Z,21.40
2023-01-10T11:11:03.135Z,26.30
2023-01-10T11:12:02.725Z,26.30
2023-01-10T11:13:02.794Z,26.30
2023-01-10T11:14:02.411Z,26.30
2023-01-10T11:15:02.263Z,26.30
2023-01-10T11:16:02.793Z,20.40
2023-01-10T11:17:02.797Z,20.40
2023-01-10T11:18:02.781Z,20.40
2023-01-10T11:19:03.394Z,20.40
2023-01-10T11:20:02.925Z,20.40
2023-01-10T11:21:02.986Z,25.20
2023-01-10T11:22:03.392Z,25.20
2023-01-10T11:23:03.125Z,25.20
2023-01-10T11:24:02.980Z,25.20
2023-01-10T11:25:03.150Z,25.20
2023-01-10T11:26:03.384Z,23.70
2023-01-10T11:27:03.102Z,23.70
2023-01-10T11:28:03.119Z,23.70
2023-01-10T11:29:02.645Z,23.70
2023-01-10T11:30:02.664Z,23.70
2023-01-10T11:31:03.039Z,28.60
2023-01-10T11:32:03.515Z,28.60
2023-01-10T11:33:03.445Z,28.60
2023-01-10T11:34:03.215Z,28.60
2023-01-10T11:35:03.530Z,28.60
2023-01-10T11:36:03.436Z,24.60
2023-01-10T11:37:02.044Z,24.60
2023-01-10T11:38:02.362Z,24.60
2023-01-10T11:39:02.485Z,24.60
2023-01-10T11:40:02.061Z,24.60
2023-01-10T11:41:02.688Z,24.20
2023-01-10T11:42:02.724Z,24.20
2023-01-10T11:43:03.289Z,24.20
2023-01-10T11:44:02.789Z,24.20
2023-01-10T11:45:03.383Z,24.20
2023-01-10T11:46:03.258Z,25.10
2023-01-10T11:47:03.234Z,25.10
2023-01-10T11:48:02.358Z,25.10
2023-01-10T11:49:07.831Z,25.10
2023-01-10T11:50:02.287Z,25.10
2023-01-10T11:51:02.633Z,21.60
2023-01-10T11:52:02.571Z,21.60
2023-01-10T11:53:03.040Z,21.60
2023-01-10T11:54:03.022Z,21.60
2023-01-10T11:55:03.084Z,21.60
2023-01-10T11:56:02.762Z,20.40
2023-01-10T11:57:03.370Z,20.40
2023-01-10T11:58:02.885Z,20.40
2023-01-10T11:59:03.097Z,20.40
2023-01-10T12:00:02.719Z,20.40
2023-01-10T12:01:02.676Z,24.90
2023-01-10T12:02:02.633Z,24.90
2023-01-10T12:03:02.682Z,24.90
2023-01-10T12:04:02.167Z,24.90
2023-01-10T12:05:02.675Z,24.90
2023-01-10T12:06:02.082Z,20.70
2023-01-10T12:07:02.628Z,20.70
2023-01-10T12:08:02.257Z,20.70
2023-01-10T12:09:02.711Z,20.70
2023-01-10T12:10:02.298Z,20.70
2023-01-10T12:11:02.790Z,24.60
2023-01-10T12:12:02.695Z,24.60
2023-01-10T12:13:02.651Z,24.60
2023-01-10T12:14:02.510Z,24.60
2023-01-10T12:15:02.779Z,24.60
2023-01-10T12:16:02.980Z,22.50
2023-01-10T12:17:03.047Z,22.50
2023-01-10T12:18:01.942Z,22.50
2023-01-10T12:19:02.107Z,22.50
2023-01-10T12:20:01.529Z,22.50
2023-01-10T12:21:01.578Z,24.20
2023-01-10T12:22:01.893Z,24.20
2023-01-10T12:23:02.139Z,24.20
2023-01-10T12:24:02.092Z,24.20
2023-01-10T12:25:01.724Z,24.20
2023-01-10T12:26:11.520Z,31.30
2023-01-10T12:27:01.978Z,31.30
2023-01-10T12:28:01.915Z,31.30
2023-01-10T12:29:02.391Z,31.30
2023-01-10T12:30:01.944Z,31.30
2023-01-10T12:31:02.423Z,23.50
2023-01-10T12:32:02.098Z,23.50
2023-01-10T12:33:02.943Z,23.50
2023-01-10T12:34:02.423Z,23.50
2023-01-10T12:35:02.670Z,23.50
2023-01-10T12:36:03.000Z,18.70
2023-01-10T12:37:02.799Z,18.70
2023-01-10T12:38:02.432Z,18.70
2023-01-10T12:39:02.853Z,18.70
2023-01-10T12:40:02.871Z,18.70
2023-01-10T12:41:02.534Z,20.60
2023-01-10T12:42:02.548Z,20.60
2023-01-10T12:43:01.833Z,20.60
2023-01-10T12:44:02.089Z,20.60
2023-01-10T12:45:02.119Z,20.60
2023-01-10T12:46:09.749Z,20.40
2023-01-10T12:47:08.085Z,20.40
2023-01-10T12:48:02.702Z,20.40
2023-01-10T12:49:02.782Z,20.40
2023-01-10T12:50:02.346Z,20.40
2023-01-10T12:51:02.115Z,22.40
2023-01-10T12:52:02.549Z,22.40
2023-01-10T12:53:02.195Z,22.40